sensor_id;sensor_type;location;lat;lon;timestamp;temperature;humidity
40952;DHT22;26682;51.660;19.338;2022-09-09T00:00:49;13.20;99.90
40952;DHT22;26682;51.660;19.338;2022-09-09T00:03:10;13.20;99.90
40952;DHT22;26682;51.660;19.338;2022-09-09T00:07:15;13.20;99.90
40952;DHT22;26682;51.660;19.338;2022-09-09T00:09:16;13.20;99.90
40952;DHT22;26682;51.660;19.338;2022-09-09T00:11:03;13.20;99.90
40952;DHT22;26682;51.660;19.338;2022-09-09T00:15:00;13.20;99.90
40952;DHT22;26682;51.660;19.338;2022-09-09T00:16:56;13.20;99.90
40952;DHT22;26682;51.660;19.338;2022-09-09T00:19:15;13.20;99.90
40952;DHT22;26682;51.660;19.338;2022-09-09T00:21:32;13.20;99.90
40952;DHT22;26682;51.660;19.338;2022-09-09T00:23:25;13.20;99.90
40952;DHT22;26682;51.660;19.338;2022-09-09T00:25:15;13.10;99.90
40952;DHT22;26682;51.660;19.338;2022-09-09T00:27:32;13.10;99.90
40952;DHT22;26682;51.660;19.338;2022-09-09T00:31:39;13.10;99.90
40952;DHT22;26682;51.660;19.338;2022-09-09T00:33:26;13.00;99.90
40952;DHT22;26682;51.660;19.338;2022-09-09T00:35:21;13.10;99.90
40952;DHT22;26682;51.660;19.338;2022-09-09T00:37:08;13.10;99.90
40952;DHT22;26682;51.660;19.338;2022-09-09T00:39:01;13.10;99.90
40952;DHT22;26682;51.660;19.338;2022-09-09T00:43:30;13.10;99.90
40952;DHT22;26682;51.660;19.338;2022-09-09T00:47:40;13.10;99.90
40952;DHT22;26682;51.660;19.338;2022-09-09T00:51:58;13.00;99.90
40952;DHT22;26682;51.660;19.338;2022-09-09T00:57:51;13.00;99.90
40952;DHT22;26682;51.660;19.338;2022-09-09T01:00:20;13.00;99.90
40952;DHT22;26682;51.660;19.338;2022-09-09T01:04:29;13.10;99.90
40952;DHT22;26682;51.660;19.338;2022-09-09T01:06:29;13.00;99.90
40952;DHT22;26682;51.660;19.338;2022-09-09T01:12:16;13.00;99.90
40952;DHT22;26682;51.660;19.338;2022-09-09T01:16:22;13.00;99.90
40952;DHT22;26682;51.660;19.338;2022-09-09T01:18:11;13.00;99.90
40952;DHT22;26682;51.660;19.338;2022-09-09T01:20:18;13.10;99.90
40952;DHT22;26682;51.660;19.338;2022-09-09T01:24:28;13.00;99.90
40952;DHT22;26682;51.660;19.338;2022-09-09T01:26:45;13.00;99.90
40952;DHT22;26682;51.660;19.338;2022-09-09T01:28:46;13.00;99.90
40952;DHT22;26682;51.660;19.338;2022-09-09T01:30:38;13.00;99.90
40952;DHT22;26682;51.660;19.338;2022-09-09T01:32:53;13.00;99.90
40952;DHT22;26682;51.660;19.338;2022-09-09T01:34:39;13.00;99.90
40952;DHT22;26682;51.660;19.338;2022-09-09T01:36:39;13.00;99.90
40952;DHT22;26682;51.660;19.338;2022-09-09T01:38:28;13.10;99.90
40952;DHT22;26682;51.660;19.338;2022-09-09T01:40:15;13.00;99.90
40952;DHT22;26682;51.660;19.338;2022-09-09T01:42:02;13.00;99.90
40952;DHT22;26682;51.660;19.338;2022-09-09T01:43:49;13.00;99.90
40952;DHT22;26682;51.660;19.338;2022-09-09T01:45:37;13.00;99.90
40952;DHT22;26682;51.660;19.338;2022-09-09T01:47:24;13.00;99.90
40952;DHT22;26682;51.660;19.338;2022-09-09T01:49:20;13.00;99.90
40952;DHT22;26682;51.660;19.338;2022-09-09T01:51:08;13.00;99.90
40952;DHT22;26682;51.660;19.338;2022-09-09T01:52:57;13.00;99.90
40952;DHT22;26682;51.660;19.338;2022-09-09T01:54:46;13.00;99.90
40952;DHT22;26682;51.660;19.338;2022-09-09T02:03:28;13.10;99.90
40952;DHT22;26682;51.660;19.338;2022-09-09T02:07:30;13.10;99.90
40952;DHT22;26682;51.660;19.338;2022-09-09T02:09:23;13.10;99.90
40952;DHT22;26682;51.660;19.338;2022-09-09T02:13:12;13.10;99.90
40952;DHT22;26682;51.660;19.338;2022-09-09T02:15:05;13.10;99.90
40952;DHT22;26682;51.660;19.338;2022-09-09T02:17:11;13.10;99.90
40952;DHT22;26682;51.660;19.338;2022-09-09T02:19:27;13.10;99.90
40952;DHT22;26682;51.660;19.338;2022-09-09T02:21:35;13.10;99.90
40952;DHT22;26682;51.660;19.338;2022-09-09T02:23:22;13.00;99.90
40952;DHT22;26682;51.660;19.338;2022-09-09T02:25:15;13.00;99.90
40952;DHT22;26682;51.660;19.338;2022-09-09T02:27:06;13.00;99.90
40952;DHT22;26682;51.660;19.338;2022-09-09T02:28:55;13.10;99.90
40952;DHT22;26682;51.660;19.338;2022-09-09T02:30:45;13.10;99.90
40952;DHT22;26682;51.660;19.338;2022-09-09T02:32:35;13.00;99.90
40952;DHT22;26682;51.660;19.338;2022-09-09T02:34:23;13.00;99.90
40952;DHT22;26682;51.660;19.338;2022-09-09T02:36:14;13.00;99.90
40952;DHT22;26682;51.660;19.338;2022-09-09T02:38:07;13.10;99.90
40952;DHT22;26682;51.660;19.338;2022-09-09T02:39:55;13.10;99.90
40952;DHT22;26682;51.660;19.338;2022-09-09T02:41:42;13.00;99.90
40952;DHT22;26682;51.660;19.338;2022-09-09T02:43:32;13.00;99.90
40952;DHT22;26682;51.660;19.338;2022-09-09T02:45:20;13.10;99.90
40952;DHT22;26682;51.660;19.338;2022-09-09T02:47:35;13.10;99.90
40952;DHT22;26682;51.660;19.338;2022-09-09T02:51:40;13.00;99.90
40952;DHT22;26682;51.660;19.338;2022-09-09T02:53:43;13.00;99.90
40952;DHT22;26682;51.660;19.338;2022-09-09T02:56:20;13.10;99.90
40952;DHT22;26682;51.660;19.338;2022-09-09T02:57:47;13.10;99.90
40952;DHT22;26682;51.660;19.338;2022-09-09T02:59:37;13.10;99.90
40952;DHT22;26682;51.660;19.338;2022-09-09T03:01:23;13.10;99.90
40952;DHT22;26682;51.660;19.338;2022-09-09T03:03:09;13.20;99.90
40952;DHT22;26682;51.660;19.338;2022-09-09T03:04:56;13.20;99.90
40952;DHT22;26682;51.660;19.338;2022-09-09T03:06:42;13.20;99.90
40952;DHT22;26682;51.660;19.338;2022-09-09T03:08:36;13.20;99.90
40952;DHT22;26682;51.660;19.338;2022-09-09T03:10:23;13.20;99.90
40952;DHT22;26682;51.660;19.338;2022-09-09T03:12:10;13.20;99.90
40952;DHT22;26682;51.660;19.338;2022-09-09T03:13:57;13.20;99.90
40952;DHT22;26682;51.660;19.338;2022-09-09T03:15:45;13.20;99.90
40952;DHT22;26682;51.660;19.338;2022-09-09T03:17:35;13.20;99.90
40952;DHT22;26682;51.660;19.338;2022-09-09T03:19:22;13.20;99.90
40952;DHT22;26682;51.660;19.338;2022-09-09T03:21:09;13.20;99.90
40952;DHT22;26682;51.660;19.338;2022-09-09T03:22:59;13.20;99.90
40952;DHT22;26682;51.660;19.338;2022-09-09T03:24:45;13.20;99.90
40952;DHT22;26682;51.660;19.338;2022-09-09T03:26:33;13.20;99.90
40952;DHT22;26682;51.660;19.338;2022-09-09T03:28:19;13.20;99.90
40952;DHT22;26682;51.660;19.338;2022-09-09T03:30:07;13.20;99.90
40952;DHT22;26682;51.660;19.338;2022-09-09T03:31:54;13.30;99.90
40952;DHT22;26682;51.660;19.338;2022-09-09T03:33:40;13.30;99.90
40952;DHT22;26682;51.660;19.338;2022-09-09T03:35:28;13.30;99.90
40952;DHT22;26682;51.660;19.338;2022-09-09T03:37:16;13.30;99.90
40952;DHT22;26682;51.660;19.338;2022-09-09T03:39:03;13.30;99.90
40952;DHT22;26682;51.660;19.338;2022-09-09T03:40:51;13.30;99.90
40952;DHT22;26682;51.660;19.338;2022-09-09T03:42:41;13.30;99.90
40952;DHT22;26682;51.660;19.338;2022-09-09T03:44:27;13.30;99.90
40952;DHT22;26682;51.660;19.338;2022-09-09T03:46:14;13.30;99.90
40952;DHT22;26682;51.660;19.338;2022-09-09T03:48:00;13.30;99.90
40952;DHT22;26682;51.660;19.338;2022-09-09T03:49:47;13.30;99.90
40952;DHT22;26682;51.660;19.338;2022-09-09T03:51:33;13.40;99.90
40952;DHT22;26682;51.660;19.338;2022-09-09T03:53:24;13.40;99.90
40952;DHT22;26682;51.660;19.338;2022-09-09T03:55:11;13.40;99.90
40952;DHT22;26682;51.660;19.338;2022-09-09T03:56:57;13.40;99.90
40952;DHT22;26682;51.660;19.338;2022-09-09T03:58:43;13.40;99.90
40952;DHT22;26682;51.660;19.338;2022-09-09T04:00:31;13.40;99.90
40952;DHT22;26682;51.660;19.338;2022-09-09T04:02:18;13.40;99.90
40952;DHT22;26682;51.660;19.338;2022-09-09T04:04:04;13.40;99.90
40952;DHT22;26682;51.660;19.338;2022-09-09T04:05:54;13.40;99.90
40952;DHT22;26682;51.660;19.338;2022-09-09T04:07:41;13.50;99.90
40952;DHT22;26682;51.660;19.338;2022-09-09T04:09:29;13.50;99.90
40952;DHT22;26682;51.660;19.338;2022-09-09T04:11:16;13.50;99.90
40952;DHT22;26682;51.660;19.338;2022-09-09T04:13:04;13.50;99.90
40952;DHT22;26682;51.660;19.338;2022-09-09T04:14:51;13.50;99.90
40952;DHT22;26682;51.660;19.338;2022-09-09T04:16:38;13.60;99.90
40952;DHT22;26682;51.660;19.338;2022-09-09T04:18:26;13.60;99.90
40952;DHT22;26682;51.660;19.338;2022-09-09T04:20:14;13.60;99.90
40952;DHT22;26682;51.660;19.338;2022-09-09T04:21:59;13.60;99.90
40952;DHT22;26682;51.660;19.338;2022-09-09T04:23:46;13.60;99.90
40952;DHT22;26682;51.660;19.338;2022-09-09T04:25:33;13.60;99.90
40952;DHT22;26682;51.660;19.338;2022-09-09T04:27:20;13.70;99.90
40952;DHT22;26682;51.660;19.338;2022-09-09T04:29:07;13.70;99.90
40952;DHT22;26682;51.660;19.338;2022-09-09T04:30:55;13.70;99.90
40952;DHT22;26682;51.660;19.338;2022-09-09T04:32:42;13.70;99.90
40952;DHT22;26682;51.660;19.338;2022-09-09T04:34:28;13.70;99.90
40952;DHT22;26682;51.660;19.338;2022-09-09T04:36:16;13.70;99.90
40952;DHT22;26682;51.660;19.338;2022-09-09T04:38:02;13.80;99.90
40952;DHT22;26682;51.660;19.338;2022-09-09T04:39:50;13.80;99.90
40952;DHT22;26682;51.660;19.338;2022-09-09T04:41:36;13.90;99.90
40952;DHT22;26682;51.660;19.338;2022-09-09T04:43:23;13.90;99.90
40952;DHT22;26682;51.660;19.338;2022-09-09T04:45:12;13.90;99.90
40952;DHT22;26682;51.660;19.338;2022-09-09T04:47:00;14.00;99.90
40952;DHT22;26682;51.660;19.338;2022-09-09T04:48:46;14.00;99.90
40952;DHT22;26682;51.660;19.338;2022-09-09T04:50:35;14.10;99.90
40952;DHT22;26682;51.660;19.338;2022-09-09T04:52:22;14.10;99.90
40952;DHT22;26682;51.660;19.338;2022-09-09T04:54:08;14.10;99.90
40952;DHT22;26682;51.660;19.338;2022-09-09T04:56:07;14.10;99.90
40952;DHT22;26682;51.660;19.338;2022-09-09T04:57:58;14.20;99.90
40952;DHT22;26682;51.660;19.338;2022-09-09T04:59:49;14.20;99.90
40952;DHT22;26682;51.660;19.338;2022-09-09T05:01:35;14.20;99.90
40952;DHT22;26682;51.660;19.338;2022-09-09T05:03:24;14.30;99.90
40952;DHT22;26682;51.660;19.338;2022-09-09T05:05:10;14.30;99.90
40952;DHT22;26682;51.660;19.338;2022-09-09T05:06:57;14.40;99.90
40952;DHT22;26682;51.660;19.338;2022-09-09T05:08:45;14.40;99.90
40952;DHT22;26682;51.660;19.338;2022-09-09T05:10:33;14.40;99.90
40952;DHT22;26682;51.660;19.338;2022-09-09T05:12:20;14.40;99.90
40952;DHT22;26682;51.660;19.338;2022-09-09T05:14:11;14.40;99.90
40952;DHT22;26682;51.660;19.338;2022-09-09T05:15:57;14.50;99.90
40952;DHT22;26682;51.660;19.338;2022-09-09T05:17:44;14.50;99.90
40952;DHT22;26682;51.660;19.338;2022-09-09T05:19:31;14.50;99.90
40952;DHT22;26682;51.660;19.338;2022-09-09T05:21:19;14.50;99.90
40952;DHT22;26682;51.660;19.338;2022-09-09T05:23:05;14.60;99.90
40952;DHT22;26682;51.660;19.338;2022-09-09T05:24:52;14.60;99.90
40952;DHT22;26682;51.660;19.338;2022-09-09T05:26:39;14.70;99.90
40952;DHT22;26682;51.660;19.338;2022-09-09T05:28:29;14.70;99.90
40952;DHT22;26682;51.660;19.338;2022-09-09T05:30:16;14.70;99.90
40952;DHT22;26682;51.660;19.338;2022-09-09T05:32:05;14.70;99.90
40952;DHT22;26682;51.660;19.338;2022-09-09T05:33:51;14.70;99.90
40952;DHT22;26682;51.660;19.338;2022-09-09T05:35:37;14.80;99.90
40952;DHT22;26682;51.660;19.338;2022-09-09T05:37:24;14.80;99.90
40952;DHT22;26682;51.660;19.338;2022-09-09T05:39:09;14.80;99.90
40952;DHT22;26682;51.660;19.338;2022-09-09T05:40:58;14.90;99.90
40952;DHT22;26682;51.660;19.338;2022-09-09T05:42:44;14.90;99.90
40952;DHT22;26682;51.660;19.338;2022-09-09T05:44:31;15.00;99.90
40952;DHT22;26682;51.660;19.338;2022-09-09T05:46:22;15.00;99.90
40952;DHT22;26682;51.660;19.338;2022-09-09T05:48:11;15.10;99.90
40952;DHT22;26682;51.660;19.338;2022-09-09T05:49:57;15.10;99.90
40952;DHT22;26682;51.660;19.338;2022-09-09T05:51:44;15.20;99.90
40952;DHT22;26682;51.660;19.338;2022-09-09T05:53:32;15.20;99.90
40952;DHT22;26682;51.660;19.338;2022-09-09T05:55:18;15.20;99.90
40952;DHT22;26682;51.660;19.338;2022-09-09T05:57:04;15.20;99.90
40952;DHT22;26682;51.660;19.338;2022-09-09T05:58:52;15.20;99.90
40952;DHT22;26682;51.660;19.338;2022-09-09T06:00:42;15.30;99.90
40952;DHT22;26682;51.660;19.338;2022-09-09T06:02:30;15.40;99.90
40952;DHT22;26682;51.660;19.338;2022-09-09T06:04:17;15.40;99.90
40952;DHT22;26682;51.660;19.338;2022-09-09T06:06:06;15.50;99.90
40952;DHT22;26682;51.660;19.338;2022-09-09T06:07:53;15.60;99.90
40952;DHT22;26682;51.660;19.338;2022-09-09T06:09:39;15.70;99.90
40952;DHT22;26682;51.660;19.338;2022-09-09T06:11:29;15.70;99.90
40952;DHT22;26682;51.660;19.338;2022-09-09T06:13:18;16.00;99.90
40952;DHT22;26682;51.660;19.338;2022-09-09T06:15:04;16.10;99.90
40952;DHT22;26682;51.660;19.338;2022-09-09T06:16:51;16.00;99.90
40952;DHT22;26682;51.660;19.338;2022-09-09T06:18:42;16.20;99.90
40952;DHT22;26682;51.660;19.338;2022-09-09T06:20:28;16.30;99.90
40952;DHT22;26682;51.660;19.338;2022-09-09T06:22:17;16.40;99.90
40952;DHT22;26682;51.660;19.338;2022-09-09T06:24:04;16.70;99.90
40952;DHT22;26682;51.660;19.338;2022-09-09T06:25:51;17.10;99.90
40952;DHT22;26682;51.660;19.338;2022-09-09T06:27:38;17.30;99.90
40952;DHT22;26682;51.660;19.338;2022-09-09T06:29:24;17.40;99.90
40952;DHT22;26682;51.660;19.338;2022-09-09T06:31:13;17.50;99.90
40952;DHT22;26682;51.660;19.338;2022-09-09T06:33:00;17.60;99.90
40952;DHT22;26682;51.660;19.338;2022-09-09T06:34:46;17.60;99.90
40952;DHT22;26682;51.660;19.338;2022-09-09T06:36:37;17.70;99.90
40952;DHT22;26682;51.660;19.338;2022-09-09T06:38:23;17.70;99.90
40952;DHT22;26682;51.660;19.338;2022-09-09T06:40:10;17.70;99.90
40952;DHT22;26682;51.660;19.338;2022-09-09T06:41:56;17.70;99.90
40952;DHT22;26682;51.660;19.338;2022-09-09T06:44:22;17.70;99.90
40952;DHT22;26682;51.660;19.338;2022-09-09T06:46:11;17.70;99.90
40952;DHT22;26682;51.660;19.338;2022-09-09T06:47:58;17.70;99.90
40952;DHT22;26682;51.660;19.338;2022-09-09T06:49:44;17.60;99.90
40952;DHT22;26682;51.660;19.338;2022-09-09T06:51:33;17.60;99.90
40952;DHT22;26682;51.660;19.338;2022-09-09T06:53:21;17.70;99.90
40952;DHT22;26682;51.660;19.338;2022-09-09T06:55:08;17.90;99.90
40952;DHT22;26682;51.660;19.338;2022-09-09T06:56:56;18.00;99.90
40952;DHT22;26682;51.660;19.338;2022-09-09T06:58:43;18.10;99.90
40952;DHT22;26682;51.660;19.338;2022-09-09T07:00:33;18.30;99.90
40952;DHT22;26682;51.660;19.338;2022-09-09T07:02:19;18.50;99.90
40952;DHT22;26682;51.660;19.338;2022-09-09T07:04:07;18.80;99.90
40952;DHT22;26682;51.660;19.338;2022-09-09T07:05:55;19.10;99.90
40952;DHT22;26682;51.660;19.338;2022-09-09T07:07:42;19.10;99.90
40952;DHT22;26682;51.660;19.338;2022-09-09T07:09:30;19.10;99.90
40952;DHT22;26682;51.660;19.338;2022-09-09T07:11:19;19.00;99.90
40952;DHT22;26682;51.660;19.338;2022-09-09T07:13:06;18.90;99.90
40952;DHT22;26682;51.660;19.338;2022-09-09T07:14:53;18.80;99.90
40952;DHT22;26682;51.660;19.338;2022-09-09T07:16:40;18.70;99.90
40952;DHT22;26682;51.660;19.338;2022-09-09T07:18:26;18.80;99.90
40952;DHT22;26682;51.660;19.338;2022-09-09T07:20:13;19.00;99.90
40952;DHT22;26682;51.660;19.338;2022-09-09T07:22:00;19.00;99.90
40952;DHT22;26682;51.660;19.338;2022-09-09T07:23:50;19.00;99.90
40952;DHT22;26682;51.660;19.338;2022-09-09T07:25:37;18.90;99.90
40952;DHT22;26682;51.660;19.338;2022-09-09T07:27:23;18.80;99.90
40952;DHT22;26682;51.660;19.338;2022-09-09T07:29:10;18.70;99.90
40952;DHT22;26682;51.660;19.338;2022-09-09T07:31:01;18.60;99.90
40952;DHT22;26682;51.660;19.338;2022-09-09T07:32:51;18.70;99.90
40952;DHT22;26682;51.660;19.338;2022-09-09T07:34:37;18.80;99.90
40952;DHT22;26682;51.660;19.338;2022-09-09T07:36:26;19.00;99.90
40952;DHT22;26682;51.660;19.338;2022-09-09T07:38:14;19.00;99.90
40952;DHT22;26682;51.660;19.338;2022-09-09T07:40:01;19.00;99.90
40952;DHT22;26682;51.660;19.338;2022-09-09T07:41:50;19.00;99.90
40952;DHT22;26682;51.660;19.338;2022-09-09T07:43:41;18.90;99.90
40952;DHT22;26682;51.660;19.338;2022-09-09T07:45:28;18.80;99.90
40952;DHT22;26682;51.660;19.338;2022-09-09T07:47:14;18.80;99.90
40952;DHT22;26682;51.660;19.338;2022-09-09T07:49:06;18.80;99.90
40952;DHT22;26682;51.660;19.338;2022-09-09T07:52:52;18.70;99.90
40952;DHT22;26682;51.660;19.338;2022-09-09T07:54:39;18.80;99.90
40952;DHT22;26682;51.660;19.338;2022-09-09T07:56:27;18.80;99.90
40952;DHT22;26682;51.660;19.338;2022-09-09T07:58:13;18.80;99.90
40952;DHT22;26682;51.660;19.338;2022-09-09T07:59:59;18.80;99.90
40952;DHT22;26682;51.660;19.338;2022-09-09T08:01:50;18.80;99.90
40952;DHT22;26682;51.660;19.338;2022-09-09T08:03:40;18.80;99.90
40952;DHT22;26682;51.660;19.338;2022-09-09T08:05:26;18.80;99.90
40952;DHT22;26682;51.660;19.338;2022-09-09T08:07:13;18.70;99.90
40952;DHT22;26682;51.660;19.338;2022-09-09T08:09:07;18.70;99.90
40952;DHT22;26682;51.660;19.338;2022-09-09T08:10:53;18.60;99.90
40952;DHT22;26682;51.660;19.338;2022-09-09T08:12:40;18.60;99.90
40952;DHT22;26682;51.660;19.338;2022-09-09T08:14:26;18.70;99.90
40952;DHT22;26682;51.660;19.338;2022-09-09T08:16:16;18.80;99.90
40952;DHT22;26682;51.660;19.338;2022-09-09T08:18:02;18.90;99.90
40952;DHT22;26682;51.660;19.338;2022-09-09T08:19:50;19.00;99.90
40952;DHT22;26682;51.660;19.338;2022-09-09T08:21:42;19.20;99.90
40952;DHT22;26682;51.660;19.338;2022-09-09T08:23:30;19.20;99.90
40952;DHT22;26682;51.660;19.338;2022-09-09T08:25:16;19.20;99.90
40952;DHT22;26682;51.660;19.338;2022-09-09T08:27:02;19.30;99.90
40952;DHT22;26682;51.660;19.338;2022-09-09T08:28:50;19.50;99.90
40952;DHT22;26682;51.660;19.338;2022-09-09T08:30:37;19.60;99.90
40952;DHT22;26682;51.660;19.338;2022-09-09T08:32:25;19.70;99.90
40952;DHT22;26682;51.660;19.338;2022-09-09T08:34:12;19.70;99.90
40952;DHT22;26682;51.660;19.338;2022-09-09T08:35:58;19.60;99.90
40952;DHT22;26682;51.660;19.338;2022-09-09T08:37:44;19.60;99.90
40952;DHT22;26682;51.660;19.338;2022-09-09T08:39:30;19.60;99.90
40952;DHT22;26682;51.660;19.338;2022-09-09T08:43:42;19.80;99.90
40952;DHT22;26682;51.660;19.338;2022-09-09T08:45:44;20.00;99.90
40952;DHT22;26682;51.660;19.338;2022-09-09T08:47:55;20.10;99.90
40952;DHT22;26682;51.660;19.338;2022-09-09T08:52:04;19.70;99.90
40952;DHT22;26682;51.660;19.338;2022-09-09T08:54:02;19.80;99.90
40952;DHT22;26682;51.660;19.338;2022-09-09T08:55:52;19.80;99.90
40952;DHT22;26682;51.660;19.338;2022-09-09T08:57:46;19.90;99.90
40952;DHT22;26682;51.660;19.338;2022-09-09T08:59:32;19.90;99.90
40952;DHT22;26682;51.660;19.338;2022-09-09T09:11:56;19.70;99.90
40952;DHT22;26682;51.660;19.338;2022-09-09T09:13:58;19.50;99.90
40952;DHT22;26682;51.660;19.338;2022-09-09T09:15:54;19.20;99.90
40952;DHT22;26682;51.660;19.338;2022-09-09T09:17:42;19.10;99.90
40952;DHT22;26682;51.660;19.338;2022-09-09T09:19:31;19.10;99.90
40952;DHT22;26682;51.660;19.338;2022-09-09T09:21:26;19.20;99.90
40952;DHT22;26682;51.660;19.338;2022-09-09T09:23:23;19.50;99.90
40952;DHT22;26682;51.660;19.338;2022-09-09T09:27:25;20.10;99.90
40952;DHT22;26682;51.660;19.338;2022-09-09T09:29:19;20.20;99.90
40952;DHT22;26682;51.660;19.338;2022-09-09T09:31:10;20.30;99.90
40952;DHT22;26682;51.660;19.338;2022-09-09T09:35:12;20.30;99.90
40952;DHT22;26682;51.660;19.338;2022-09-09T09:37:00;20.30;99.90
40952;DHT22;26682;51.660;19.338;2022-09-09T09:38:55;20.40;99.90
40952;DHT22;26682;51.660;19.338;2022-09-09T09:41:08;20.30;99.90
40952;DHT22;26682;51.660;19.338;2022-09-09T09:43:01;20.10;99.90
40952;DHT22;26682;51.660;19.338;2022-09-09T09:44:48;20.00;99.90
40952;DHT22;26682;51.660;19.338;2022-09-09T09:46:38;20.00;99.90
40952;DHT22;26682;51.660;19.338;2022-09-09T09:48:31;20.00;99.90
40952;DHT22;26682;51.660;19.338;2022-09-09T09:50:19;20.00;99.90
40952;DHT22;26682;51.660;19.338;2022-09-09T09:52:13;20.10;99.90
40952;DHT22;26682;51.660;19.338;2022-09-09T09:54:26;20.10;99.90
40952;DHT22;26682;51.660;19.338;2022-09-09T09:56:26;20.20;99.90
40952;DHT22;26682;51.660;19.338;2022-09-09T09:58:15;20.30;99.90
40952;DHT22;26682;51.660;19.338;2022-09-09T10:00:13;20.20;99.90
40952;DHT22;26682;51.660;19.338;2022-09-09T10:02:36;20.00;99.90
40952;DHT22;26682;51.660;19.338;2022-09-09T10:04:28;20.00;99.90
40952;DHT22;26682;51.660;19.338;2022-09-09T10:06:15;19.80;99.90
40952;DHT22;26682;51.660;19.338;2022-09-09T10:08:10;19.80;99.90
40952;DHT22;26682;51.660;19.338;2022-09-09T10:09:57;20.00;99.90
40952;DHT22;26682;51.660;19.338;2022-09-09T10:11:59;20.30;99.90
40952;DHT22;26682;51.660;19.338;2022-09-09T10:16:05;20.30;99.90
40952;DHT22;26682;51.660;19.338;2022-09-09T10:17:54;20.20;99.90
40952;DHT22;26682;51.660;19.338;2022-09-09T10:30:19;19.80;99.90
40952;DHT22;26682;51.660;19.338;2022-09-09T10:36:13;19.90;99.90
40952;DHT22;26682;51.660;19.338;2022-09-09T10:40:00;20.20;99.90
40952;DHT22;26682;51.660;19.338;2022-09-09T10:42:09;20.30;99.90
40952;DHT22;26682;51.660;19.338;2022-09-09T10:44:12;20.40;99.90
40952;DHT22;26682;51.660;19.338;2022-09-09T10:51:04;20.20;99.90
40952;DHT22;26682;51.660;19.338;2022-09-09T10:53:08;20.10;99.90
40952;DHT22;26682;51.660;19.338;2022-09-09T10:55:20;20.30;99.90
40952;DHT22;26682;51.660;19.338;2022-09-09T10:57:17;20.40;99.90
40952;DHT22;26682;51.660;19.338;2022-09-09T10:59:20;20.60;99.90
40952;DHT22;26682;51.660;19.338;2022-09-09T11:01:19;20.70;99.90
40952;DHT22;26682;51.660;19.338;2022-09-09T11:03:19;20.90;99.90
40952;DHT22;26682;51.660;19.338;2022-09-09T11:05:16;21.20;99.90
40952;DHT22;26682;51.660;19.338;2022-09-09T11:07:07;21.20;99.90
40952;DHT22;26682;51.660;19.338;2022-09-09T11:08:56;21.10;99.90
40952;DHT22;26682;51.660;19.338;2022-09-09T11:11:07;21.10;99.90
40952;DHT22;26682;51.660;19.338;2022-09-09T11:13:01;21.00;99.90
40952;DHT22;26682;51.660;19.338;2022-09-09T11:15:01;21.10;99.90
40952;DHT22;26682;51.660;19.338;2022-09-09T11:21:26;20.70;99.90
40952;DHT22;26682;51.660;19.338;2022-09-09T11:23:18;20.80;99.90
40952;DHT22;26682;51.660;19.338;2022-09-09T11:27:06;20.60;99.90
40952;DHT22;26682;51.660;19.338;2022-09-09T11:40:15;21.30;99.90
40952;DHT22;26682;51.660;19.338;2022-09-09T11:42:15;21.20;99.90
40952;DHT22;26682;51.660;19.338;2022-09-09T11:44:13;21.20;99.90
40952;DHT22;26682;51.660;19.338;2022-09-09T11:46:03;20.90;99.90
40952;DHT22;26682;51.660;19.338;2022-09-09T11:47:58;20.80;99.90
40952;DHT22;26682;51.660;19.338;2022-09-09T11:49:44;20.80;99.90
40952;DHT22;26682;51.660;19.338;2022-09-09T11:51:33;20.80;99.90
40952;DHT22;26682;51.660;19.338;2022-09-09T11:53:21;20.80;99.90
40952;DHT22;26682;51.660;19.338;2022-09-09T11:57:02;20.90;99.90
40952;DHT22;26682;51.660;19.338;2022-09-09T11:59:00;21.10;99.90
40952;DHT22;26682;51.660;19.338;2022-09-09T12:00:49;21.20;99.90
40952;DHT22;26682;51.660;19.338;2022-09-09T12:02:36;21.10;99.90
40952;DHT22;26682;51.660;19.338;2022-09-09T12:06:33;21.10;99.90
40952;DHT22;26682;51.660;19.338;2022-09-09T12:08:28;21.20;99.90
40952;DHT22;26682;51.660;19.338;2022-09-09T12:10:40;21.40;99.90
40952;DHT22;26682;51.660;19.338;2022-09-09T12:12:35;21.40;99.90
40952;DHT22;26682;51.660;19.338;2022-09-09T12:14:37;21.60;99.90
40952;DHT22;26682;51.660;19.338;2022-09-09T12:16:36;21.50;99.90
40952;DHT22;26682;51.660;19.338;2022-09-09T12:18:31;21.50;99.90
40952;DHT22;26682;51.660;19.338;2022-09-09T12:20:32;21.50;99.90
40952;DHT22;26682;51.660;19.338;2022-09-09T12:22:37;21.60;99.90
40952;DHT22;26682;51.660;19.338;2022-09-09T12:24:40;21.60;99.90
40952;DHT22;26682;51.660;19.338;2022-09-09T12:30:17;21.60;99.90
40952;DHT22;26682;51.660;19.338;2022-09-09T12:32:11;21.50;99.90
40952;DHT22;26682;51.660;19.338;2022-09-09T12:34:09;21.50;99.90
40952;DHT22;26682;51.660;19.338;2022-09-09T12:35:57;21.70;99.90
40952;DHT22;26682;51.660;19.338;2022-09-09T12:37:51;21.60;99.90
40952;DHT22;26682;51.660;19.338;2022-09-09T12:39:45;21.50;99.90
40952;DHT22;26682;51.660;19.338;2022-09-09T12:41:33;21.40;99.90
40952;DHT22;26682;51.660;19.338;2022-09-09T12:43:21;21.40;99.90
40952;DHT22;26682;51.660;19.338;2022-09-09T12:45:24;21.20;99.90
40952;DHT22;26682;51.660;19.338;2022-09-09T12:47:13;21.30;99.90
40952;DHT22;26682;51.660;19.338;2022-09-09T12:48:59;21.50;99.90
40952;DHT22;26682;51.660;19.338;2022-09-09T12:50:50;21.50;99.90
40952;DHT22;26682;51.660;19.338;2022-09-09T12:52:36;21.50;99.90
40952;DHT22;26682;51.660;19.338;2022-09-09T12:54:24;21.60;99.90
40952;DHT22;26682;51.660;19.338;2022-09-09T12:56:19;21.70;99.90
40952;DHT22;26682;51.660;19.338;2022-09-09T12:58:06;21.80;99.90
40952;DHT22;26682;51.660;19.338;2022-09-09T13:00:04;21.90;99.90
40952;DHT22;26682;51.660;19.338;2022-09-09T13:01:58;21.80;99.90
40952;DHT22;26682;51.660;19.338;2022-09-09T13:03:44;21.80;99.90
40952;DHT22;26682;51.660;19.338;2022-09-09T13:05:36;21.70;99.90
40952;DHT22;26682;51.660;19.338;2022-09-09T13:07:22;21.70;99.90
40952;DHT22;26682;51.660;19.338;2022-09-09T13:09:10;21.80;99.90
40952;DHT22;26682;51.660;19.338;2022-09-09T13:11:02;21.70;99.90
40952;DHT22;26682;51.660;19.338;2022-09-09T13:12:49;21.70;99.90
40952;DHT22;26682;51.660;19.338;2022-09-09T13:14:36;21.50;99.90
40952;DHT22;26682;51.660;19.338;2022-09-09T13:16:28;21.60;99.90
40952;DHT22;26682;51.660;19.338;2022-09-09T13:18:21;21.70;99.90
40952;DHT22;26682;51.660;19.338;2022-09-09T13:20:17;21.70;99.90
40952;DHT22;26682;51.660;19.338;2022-09-09T13:22:37;21.80;99.90
40952;DHT22;26682;51.660;19.338;2022-09-09T13:24:33;21.90;99.90